createdAt,value
2023-04-18T00:02:29.003Z,101355.41
2023-04-18T00:07:25.772Z,101357.97
2023-04-18T00:12:22.288Z,101354.56
2023-04-18T00:17:18.874Z,101356.31
2023-04-18T00:22:16.881Z,101355.59
2023-04-18T00:27:13.209Z,101357.03
2023-04-18T00:32:09.614Z,101369.47
2023-04-18T00:37:06.729Z,101360.63
2023-04-18T00:42:04.067Z,101355.19
2023-04-18T00:47:00.641Z,101355.91
2023-04-18T00:51:57.162Z,101351.63
2023-04-18T00:56:53.653Z,101355.47
2023-04-18T01:01:50.053Z,101361.91
2023-04-18T01:06:46.984Z,101370.41
2023-04-18T01:11:43.344Z,101357.75
2023-04-18T01:16:39.951Z,101355.34
2023-04-18T01:21:37.436Z,101342.19
2023-04-18T01:26:34.005Z,101353.09
2023-04-18T01:31:30.568Z,101355.78
2023-04-18T01:36:27.749Z,101346.53
2023-04-18T01:41:24.260Z,101347.28
2023-04-18T01:46:20.701Z,101332.53
2023-04-18T01:51:17.053Z,101338.13
2023-04-18T01:56:13.538Z,101329.31
2023-04-18T02:01:10.014Z,101326.03
2023-04-18T02:06:06.905Z,101324.19
2023-04-18T02:11:05.022Z,101328.13
2023-04-18T02:16:01.395Z,101324.03
2023-04-18T02:20:57.807Z,101339.75
2023-04-18T02:25:54.527Z,101332.88
2023-04-18T02:30:51.039Z,101335.94
2023-04-18T02:35:47.573Z,101338.59
2023-04-18T02:40:44.048Z,101332.88
2023-04-18T02:45:40.492Z,101335.53
2023-04-18T02:50:36.970Z,101343.97
2023-04-18T02:55:33.662Z,101347.59
2023-04-18T03:00:30.241Z,101348.69
2023-04-18T03:05:26.635Z,101357.56
2023-04-18T03:10:23.072Z,101358.09
2023-04-18T03:15:19.507Z,101364.81
2023-04-18T03:20:16.103Z,101364.69
2023-04-18T03:25:12.528Z,101366.25
2023-04-18T03:30:09.996Z,101366.25
2023-04-18T03:35:06.568Z,101373.41
2023-04-18T03:40:05.231Z,101371.81
2023-04-18T03:45:01.968Z,101372.03
2023-04-18T03:49:58.484Z,101376.44
2023-04-18T03:54:55.048Z,101375.53
2023-04-18T03:59:51.604Z,101376.75
2023-04-18T04:04:48.476Z,101380.41
2023-04-18T04:09:44.841Z,101379.53
2023-04-18T04:14:41.235Z,101379.63
2023-04-18T04:19:37.570Z,101379.63
2023-04-18T04:24:33.956Z,101382.19
2023-04-18T04:29:30.483Z,101382.34
2023-04-18T04:34:26.844Z,101387.69
2023-04-18T04:39:23.201Z,101382.59
2023-04-18T04:44:21.925Z,101386.78
2023-04-18T04:49:18.437Z,101385.19
2023-04-18T04:54:14.955Z,101386.13
2023-04-18T04:59:11.424Z,101406.47
2023-04-18T05:04:07.875Z,101414.81
2023-04-18T05:09:04.258Z,101426.97
2023-04-18T05:14:00.627Z,101425.91
2023-04-18T05:18:57.002Z,101422.25
2023-04-18T05:23:53.383Z,101423.94
2023-04-18T05:28:49.732Z,101423.97
2023-04-18T05:33:46.192Z,101426.84
2023-04-18T05:38:42.520Z,101423.41
2023-04-18T05:43:39.112Z,101425.97
2023-04-18T05:48:35.519Z,101431.19
2023-04-18T05:53:31.855Z,101431.00
2023-04-18T05:58:29.148Z,101433.56
2023-04-18T06:03:25.814Z,101435.13
2023-04-18T06:08:22.388Z,101442.81
2023-04-18T06:13:18.737Z,101435.00
2023-04-18T06:18:15.292Z,101440.16
2023-04-18T06:23:11.686Z,101439.72
2023-04-18T06:28:08.221Z,101453.44
2023-04-18T06:33:04.694Z,101457.75
2023-04-18T06:38:01.200Z,101461.47
2023-04-18T06:42:57.581Z,101466.91
2023-04-18T06:47:54.073Z,101465.34
2023-04-18T06:52:50.544Z,101476.06
2023-04-18T06:57:47.083Z,101476.63
2023-04-18T07:02:43.670Z,101465.59
2023-04-18T07:07:40.293Z,101476.28
2023-04-18T07:12:36.829Z,101463.63
2023-04-18T07:17:33.217Z,101476.63
2023-04-18T07:22:29.605Z,101479.88
2023-04-18T07:27:26.705Z,101476.00
2023-04-18T07:32:23.084Z,101486.56
2023-04-18T07:37:21.238Z,101488.97
2023-04-18T07:42:17.804Z,101490.59
2023-04-18T07:47:14.140Z,101493.63
2023-04-18T07:52:10.696Z,101480.31
2023-04-18T07:57:07.070Z,101481.00
2023-04-18T08:02:03.479Z,101465.06
2023-04-18T08:06:59.875Z,101471.72
2023-04-18T08:11:56.867Z,101481.38
2023-04-18T08:16:53.310Z,101474.72
2023-04-18T08:21:51.133Z,101484.41
2023-04-18T08:26:47.543Z,101482.41
2023-04-18T08:31:43.920Z,101489.47
2023-04-18T08:36:40.457Z,101489.69
2023-04-18T08:41:40.192Z,101491.72
2023-04-18T08:46:37.169Z,101495.50
2023-04-18T08:51:33.943Z,101503.91
2023-04-18T08:56:31.151Z,101494.59
2023-04-18T09:01:49.553Z,101497.97
2023-04-18T09:06:53.070Z,101499.53
2023-04-18T09:11:49.523Z,101511.66
2023-04-18T09:16:50.520Z,101517.25
2023-04-18T09:21:58.075Z,101521.97
2023-04-18T09:26:56.918Z,101521.94
2023-04-18T09:31:59.749Z,101522.53
2023-04-18T09:37:07.762Z,101525.13
2023-04-18T09:42:06.101Z,101527.75
2023-04-18T09:47:02.899Z,101527.59
2023-04-18T09:52:01.547Z,101521.97
2023-04-18T09:56:58.827Z,101520.50
2023-04-18T10:01:57.753Z,101520.41
2023-04-18T10:06:54.451Z,101513.84
2023-04-18T10:11:50.935Z,101513.53
2023-04-18T10:16:49.968Z,101511.03
2023-04-18T10:21:54.642Z,101512.50
2023-04-18T10:26:50.995Z,101514.31
2023-04-18T10:31:47.985Z,101508.00
2023-04-18T10:37:03.866Z,101504.44
2023-04-18T10:42:00.212Z,101498.44
2023-04-18T10:46:56.613Z,101495.59
2023-04-18T10:51:55.634Z,101488.16
2023-04-18T10:56:57.133Z,101488.78
2023-04-18T11:01:57.077Z,101489.94
2023-04-18T11:07:00.176Z,101479.13
2023-04-18T11:12:14.753Z,101489.84
2023-04-18T11:17:23.607Z,101490.31
2023-04-18T11:22:20.176Z,101477.28
2023-04-18T11:27:16.623Z,101482.25
2023-04-18T11:32:13.069Z,101478.41
2023-04-18T11:37:09.481Z,101470.72
2023-04-18T11:42:05.901Z,101472.44
2023-04-18T11:47:02.316Z,101479.75
2023-04-18T11:51:59.879Z,101485.03
2023-04-18T11:56:57.493Z,101477.91
2023-04-18T12:02:14.799Z,101483.19
2023-04-18T12:07:12.873Z,101476.72
2023-04-18T12:12:09.295Z,101490.59
2023-04-18T12:17:05.750Z,101475.94
2023-04-18T12:22:05.069Z,101481.09
2023-04-18T12:27:01.856Z,101480.19
2023-04-18T12:31:58.301Z,101478.38
2023-04-18T12:36:54.780Z,101483.75
2023-04-18T12:41:51.387Z,101480.75
2023-04-18T12:46:48.481Z,101480.28
2023-04-18T12:51:45.180Z,101478.81
2023-04-18T12:56:41.576Z,101472.53
2023-04-18T13:01:38.184Z,101477.28
2023-04-18T13:06:34.567Z,101465.69
2023-04-18T13:11:30.911Z,101473.59
2023-04-18T13:16:27.716Z,101480.28
2023-04-18T13:21:25.840Z,101480.16
2023-04-18T13:26:22.203Z,101485.34
2023-04-18T13:31:18.685Z,101479.91
2023-04-18T13:36:15.430Z,101496.13
2023-04-18T13:41:13.554Z,101482.47
2023-04-18T13:46:10.886Z,101474.78
2023-04-18T13:51:07.412Z,101478.56
2023-04-18T13:56:03.953Z,101489.53
2023-04-18T14:01:00.819Z,101489.09
2023-04-18T14:05:58.791Z,101482.19
2023-04-18T14:10:55.334Z,101494.81
2023-04-18T14:15:52.594Z,101481.22
2023-04-18T14:20:49.148Z,101480.13
2023-04-18T14:25:45.555Z,101467.97
2023-04-18T14:30:41.867Z,101466.72
2023-04-18T14:35:38.633Z,101458.03
2023-04-18T14:40:34.951Z,101456.25
2023-04-18T14:45:33.664Z,101463.59
2023-04-18T14:50:31.206Z,101459.59
2023-04-18T14:55:27.590Z,101457.50
2023-04-18T15:00:24.011Z,101450.53
2023-04-18T15:05:23.753Z,101444.56
2023-04-18T15:10:22.336Z,101452.31
2023-04-18T15:15:19.398Z,101446.81
2023-04-18T15:20:16.144Z,101442.78
2023-04-18T15:25:16.293Z,101441.59
2023-04-18T15:30:13.870Z,101447.22
2023-04-18T15:35:10.838Z,101433.13
2023-04-18T15:40:10.294Z,101418.72
2023-04-18T15:45:07.839Z,101434.69
2023-04-18T15:50:04.873Z,101431.69
2023-04-18T15:55:01.360Z,101432.31
2023-04-18T15:59:59.314Z,101424.31
2023-04-18T16:04:55.655Z,101431.41
2023-04-18T16:09:52.047Z,101430.03
2023-04-18T16:14:48.620Z,101426.63
2023-04-18T16:19:44.967Z,101428.69
2023-04-18T16:24:42.342Z,101424.56
2023-04-18T16:29:38.758Z,101430.03
2023-04-18T16:34:35.081Z,101442.84
2023-04-18T16:39:31.470Z,101434.25
2023-04-18T16:44:27.844Z,101425.44
2023-04-18T16:49:24.312Z,101415.47
2023-04-18T16:54:20.760Z,101409.44
2023-04-18T16:59:17.656Z,101418.56
2023-04-18T17:04:15.520Z,101409.78
2023-04-18T17:09:13.706Z,101414.06
2023-04-18T17:14:10.230Z,101415.91
2023-04-18T17:19:06.576Z,101433.28
2023-04-18T17:24:04.196Z,101439.22
2023-04-18T17:29:02.428Z,101443.63
2023-04-18T17:33:59.543Z,101446.53
2023-04-18T17:38:56.300Z,101435.78
2023-04-18T17:43:52.948Z,101440.47
2023-04-18T17:48:49.333Z,101438.69
2023-04-18T17:53:46.860Z,101449.97
2023-04-18T17:58:43.264Z,101463.13
2023-04-18T18:03:39.783Z,101462.94
2023-04-18T18:08:36.642Z,101467.59
2023-04-18T18:13:33.244Z,101470.06
2023-04-18T18:18:29.731Z,101474.72
2023-04-18T18:23:26.107Z,101477.22
2023-04-18T18:28:22.447Z,101479.28
2023-04-18T18:33:18.961Z,101483.25
2023-04-18T18:38:15.398Z,101481.41
2023-04-18T18:43:12.602Z,101485.66
2023-04-18T18:48:09.956Z,101481.25
2023-04-18T18:53:06.740Z,101492.66
2023-04-18T18:58:03.129Z,101487.63
2023-04-18T19:02:59.557Z,101492.34
2023-04-18T19:07:57.112Z,101496.63
2023-04-18T19:12:53.533Z,101496.97
2023-04-18T19:17:49.913Z,101492.06
2023-04-18T19:22:46.256Z,101497.44
2023-04-18T19:27:42.742Z,101499.19
2023-04-18T19:32:39.206Z,101496.06
2023-04-18T19:37:35.925Z,101497.34
2023-04-18T19:42:32.306Z,101500.63
2023-04-18T19:47:32.134Z,101497.56
2023-04-18T19:52:28.635Z,101494.56
2023-04-18T19:57:26.213Z,101491.41
2023-04-18T20:02:22.645Z,101505.22
2023-04-18T20:07:19.327Z,101503.50
2023-04-18T20:12:16.092Z,101511.00
2023-04-18T20:17:12.408Z,101508.66
2023-04-18T20:22:08.796Z,101507.88
2023-04-18T20:27:05.145Z,101503.22
2023-04-18T20:32:01.482Z,101503.91
2023-04-18T20:36:58.680Z,101498.56
2023-04-18T20:41:57.690Z,101503.91
2023-04-18T20:46:54.304Z,101498.56
2023-04-18T20:51:50.670Z,101489.13
2023-04-18T20:56:46.995Z,101501.63
2023-04-18T21:01:43.443Z,101498.88
2023-04-18T21:06:39.836Z,101499.66
2023-04-18T21:11:36.246Z,101510.81
2023-04-18T21:16:32.737Z,101511.75
2023-04-18T21:21:30.234Z,101518.59
2023-04-18T21:26:26.795Z,101515.28
2023-04-18T21:31:26.083Z,101505.84
2023-04-18T21:36:24.052Z,101503.84
2023-04-18T21:41:21.002Z,101500.88
2023-04-18T21:46:18.126Z,101505.16
2023-04-18T21:51:16.059Z,101504.13
2023-04-18T21:56:12.507Z,101506.00
2023-04-18T22:01:09.498Z,101505.44
2023-04-18T22:06:06.107Z,101509.88
2023-04-18T22:11:02.516Z,101509.03
2023-04-18T22:16:02.119Z,101509.22
2023-04-18T22:20:58.511Z,101507.50
2023-04-18T22:25:55.310Z,101510.53
2023-04-18T22:30:51.773Z,101515.78
2023-04-18T22:35:48.537Z,101506.34
2023-04-18T22:40:44.863Z,101511.69
2023-04-18T22:45:41.348Z,101514.81
2023-04-18T22:50:42.410Z,101515.13
2023-04-18T22:55:43.222Z,101517.19
2023-04-18T23:00:39.633Z,101518.13
2023-04-18T23:05:36.019Z,101513.94
2023-04-18T23:10:32.736Z,101509.09
2023-04-18T23:15:29.109Z,101510.16
2023-04-18T23:20:25.513Z,101514.84
2023-04-18T23:25:21.922Z,101511.78
2023-04-18T23:30:18.395Z,101519.38
2023-04-18T23:35:14.738Z,101519.53
2023-04-18T23:40:11.158Z,101517.78
2023-04-18T23:45:07.954Z,101514.59
2023-04-18T23:50:04.749Z,101519.16
2023-04-18T23:55:01.670Z,101515.59
2023-04-18T23:59:58.095Z,101496.56
